Terminal Aerodrome Forecast
Issued by NWS Austin/San Antonio, TX

Home | Current Version | Previous Version | Text Only | Print | Product List | Glossary On
Versions: 1 2 3 4 5 6 7 8 9 10 11 12 13 14 15 16 17
000
FTUS44 KEWX 261600 AAB
TAFDRT
TAF AMD
KDRT 261618Z 2616/2712 12008KT P6SM OVC010
     FM261900 12009KT P6SM SCT025
     FM270000 VRB04KT P6SM SCT200
     FM270900 35010KT P6SM BKN200=

USA.gov is the U.S. government's official web portal to all federal, state and local government web resources and services.